Accueil
METAR-TAF:

METAR-TAF

Aéroports :

Aéroport international Roi-Abdelaziz

Djeddah, Arabie saoudite

latitude: 21-42N, longitude: 039-11E, altitude: 15 m

Observation

Le bulletin a été fait il y a 1 heure et 3 minutes, à 17:00 UTC
Vent 7 kt de ouest/nord-ouest
Température 32°C
Humidité 71%
Pression 1003 hPa
Visibilité 10 km ou plus
pas de nuages en-dessous de 1500 mètres et pas de cumulonimbus.

METAR: OEJN 191700Z 30007KT CAVOK 32/26 Q1003 NOSIG

Heure: 21:03 (18:03 UTC)

Prévision

Le bulletin a été fait il y a 1 heure et 3 minutes, à 17:00 UTC
Prévision valable du 19 à 18 UTC au 20 à 24 UTC
Vent 8 kt de nord
Visibilité: 7000 m
Evoluant progressivement
du 20 à 06 UTC au 20 à 08 UTC
Vent 10 kt de ouest/nord-ouest avec des rafales jusqu'à 20 kt

TAF: OEJN 191700Z 1918/2024 35008KT 7000 NSC BECMG 2006/2008 30010G20KT

Observations et prévisions météorologiques de plus de 4000 aéroports (messages METAR et TAF).

Les stations disponibles sont représentées par des disques jaunes et rouges sur la carte.

Passer la souris dessus pour voir le nom de la station.

Cliquer dessus pour voir les observations et prévisions météorologiques.

Pour changer de carte: cliquez sur les boutons verts avec une croix noire pour zoomer, sur le bouton vert avec un tiret pour effectuer un zoom arrière, ou sur les flèches vertes pour les cartes adjacentes.


METAR-TAF: